sensor_id;sensor_type;location;lat;lon;timestamp;P1;durP1;ratioP1;P2;durP2;ratioP2
25982;SDS011;13773;48.868;10.730;2024-01-30T00:01:42;11.20;;;7.93;;
25982;SDS011;13773;48.868;10.730;2024-01-30T00:04:07;10.60;;;7.43;;
25982;SDS011;13773;48.868;10.730;2024-01-30T00:06:33;11.23;;;7.50;;
25982;SDS011;13773;48.868;10.730;2024-01-30T00:08:59;11.43;;;7.70;;
25982;SDS011;13773;48.868;10.730;2024-01-30T00:11:24;12.03;;;7.63;;
25982;SDS011;13773;48.868;10.730;2024-01-30T00:13:51;11.87;;;7.57;;
25982;SDS011;13773;48.868;10.730;2024-01-30T00:16:23;13.27;;;7.73;;
25982;SDS011;13773;48.868;10.730;2024-01-30T00:18:50;12.03;;;7.70;;
25982;SDS011;13773;48.868;10.730;2024-01-30T00:21:16;11.07;;;8.00;;
25982;SDS011;13773;48.868;10.730;2024-01-30T00:23:42;9.97;;;7.77;;
25982;SDS011;13773;48.868;10.730;2024-01-30T00:26:08;12.70;;;8.13;;
25982;SDS011;13773;48.868;10.730;2024-01-30T00:28:34;11.87;;;8.60;;
25982;SDS011;13773;48.868;10.730;2024-01-30T00:31:00;9.93;;;7.57;;
25982;SDS011;13773;48.868;10.730;2024-01-30T00:33:26;13.50;;;7.90;;
25982;SDS011;13773;48.868;10.730;2024-01-30T00:35:51;9.33;;;7.13;;
25982;SDS011;13773;48.868;10.730;2024-01-30T00:38:17;12.53;;;7.50;;
25982;SDS011;13773;48.868;10.730;2024-01-30T00:40:43;14.00;;;8.93;;
25982;SDS011;13773;48.868;10.730;2024-01-30T00:43:08;16.63;;;9.13;;
25982;SDS011;13773;48.868;10.730;2024-01-30T00:45:34;11.73;;;7.60;;
25982;SDS011;13773;48.868;10.730;2024-01-30T00:48:00;13.77;;;8.10;;
25982;SDS011;13773;48.868;10.730;2024-01-30T00:50:26;12.47;;;8.03;;
25982;SDS011;13773;48.868;10.730;2024-01-30T00:52:51;11.77;;;8.53;;
25982;SDS011;13773;48.868;10.730;2024-01-30T00:55:17;14.20;;;8.83;;
25982;SDS011;13773;48.868;10.730;2024-01-30T00:57:43;12.73;;;8.90;;
25982;SDS011;13773;48.868;10.730;2024-01-30T01:00:08;14.50;;;9.83;;
25982;SDS011;13773;48.868;10.730;2024-01-30T01:02:35;13.77;;;8.37;;
25982;SDS011;13773;48.868;10.730;2024-01-30T01:05:01;13.13;;;9.20;;
25982;SDS011;13773;48.868;10.730;2024-01-30T01:07:28;15.30;;;9.27;;
25982;SDS011;13773;48.868;10.730;2024-01-30T01:09:53;14.03;;;9.93;;
25982;SDS011;13773;48.868;10.730;2024-01-30T01:12:19;10.50;;;9.07;;
25982;SDS011;13773;48.868;10.730;2024-01-30T01:14:45;14.20;;;8.53;;
25982;SDS011;13773;48.868;10.730;2024-01-30T01:17:11;15.17;;;8.93;;
25982;SDS011;13773;48.868;10.730;2024-01-30T01:19:36;11.10;;;7.87;;
25982;SDS011;13773;48.868;10.730;2024-01-30T01:22:02;11.87;;;8.33;;
25982;SDS011;13773;48.868;10.730;2024-01-30T01:24:30;11.50;;;8.07;;
25982;SDS011;13773;48.868;10.730;2024-01-30T01:26:57;9.70;;;7.50;;
25982;SDS011;13773;48.868;10.730;2024-01-30T01:29:23;11.47;;;8.37;;
25982;SDS011;13773;48.868;10.730;2024-01-30T01:31:54;14.67;;;9.20;;
25982;SDS011;13773;48.868;10.730;2024-01-30T01:34:21;9.83;;;8.63;;
25982;SDS011;13773;48.868;10.730;2024-01-30T01:36:46;12.27;;;9.10;;
25982;SDS011;13773;48.868;10.730;2024-01-30T01:39:12;11.93;;;7.70;;
25982;SDS011;13773;48.868;10.730;2024-01-30T01:41:38;14.13;;;8.83;;
25982;SDS011;13773;48.868;10.730;2024-01-30T01:44:04;14.23;;;8.27;;
25982;SDS011;13773;48.868;10.730;2024-01-30T01:46:30;12.87;;;8.20;;
25982;SDS011;13773;48.868;10.730;2024-01-30T01:48:59;11.53;;;7.97;;
25982;SDS011;13773;48.868;10.730;2024-01-30T01:51:27;12.83;;;8.83;;
25982;SDS011;13773;48.868;10.730;2024-01-30T01:53:54;11.90;;;8.63;;
25982;SDS011;13773;48.868;10.730;2024-01-30T01:56:22;15.37;;;8.57;;
25982;SDS011;13773;48.868;10.730;2024-01-30T01:58:49;12.50;;;8.63;;
25982;SDS011;13773;48.868;10.730;2024-01-30T02:01:16;16.47;;;9.00;;
25982;SDS011;13773;48.868;10.730;2024-01-30T02:03:45;14.83;;;8.43;;
25982;SDS011;13773;48.868;10.730;2024-01-30T02:06:12;12.87;;;8.87;;
25982;SDS011;13773;48.868;10.730;2024-01-30T02:08:41;13.80;;;9.13;;
25982;SDS011;13773;48.868;10.730;2024-01-30T02:11:08;11.80;;;8.47;;
25982;SDS011;13773;48.868;10.730;2024-01-30T02:13:35;11.93;;;8.80;;
25982;SDS011;13773;48.868;10.730;2024-01-30T02:16:01;13.83;;;8.10;;
25982;SDS011;13773;48.868;10.730;2024-01-30T02:18:27;13.63;;;9.07;;
25982;SDS011;13773;48.868;10.730;2024-01-30T02:20:54;14.57;;;9.00;;
25982;SDS011;13773;48.868;10.730;2024-01-30T02:23:24;11.43;;;9.53;;
25982;SDS011;13773;48.868;10.730;2024-01-30T02:25:52;16.63;;;7.90;;
25982;SDS011;13773;48.868;10.730;2024-01-30T02:28:18;12.10;;;8.20;;
25982;SDS011;13773;48.868;10.730;2024-01-30T02:30:45;14.13;;;8.73;;
25982;SDS011;13773;48.868;10.730;2024-01-30T02:33:11;13.63;;;9.20;;
25982;SDS011;13773;48.868;10.730;2024-01-30T02:35:38;13.80;;;10.30;;
25982;SDS011;13773;48.868;10.730;2024-01-30T02:38:04;15.73;;;9.33;;
25982;SDS011;13773;48.868;10.730;2024-01-30T02:40:30;13.37;;;9.07;;
25982;SDS011;13773;48.868;10.730;2024-01-30T02:42:57;12.93;;;8.60;;
25982;SDS011;13773;48.868;10.730;2024-01-30T02:45:23;14.43;;;9.80;;
25982;SDS011;13773;48.868;10.730;2024-01-30T02:47:49;15.97;;;9.80;;
25982;SDS011;13773;48.868;10.730;2024-01-30T02:50:15;12.87;;;9.43;;
25982;SDS011;13773;48.868;10.730;2024-01-30T02:52:41;13.00;;;9.50;;
25982;SDS011;13773;48.868;10.730;2024-01-30T02:55:10;15.07;;;9.33;;
25982;SDS011;13773;48.868;10.730;2024-01-30T02:57:36;15.17;;;9.00;;
25982;SDS011;13773;48.868;10.730;2024-01-30T03:00:03;16.13;;;10.20;;
25982;SDS011;13773;48.868;10.730;2024-01-30T03:02:31;14.33;;;10.03;;
25982;SDS011;13773;48.868;10.730;2024-01-30T03:04:57;15.40;;;10.13;;
25982;SDS011;13773;48.868;10.730;2024-01-30T03:07:24;16.63;;;9.97;;
25982;SDS011;13773;48.868;10.730;2024-01-30T03:09:50;16.27;;;10.17;;
25982;SDS011;13773;48.868;10.730;2024-01-30T03:12:15;13.37;;;9.37;;
25982;SDS011;13773;48.868;10.730;2024-01-30T03:14:41;15.43;;;10.17;;
25982;SDS011;13773;48.868;10.730;2024-01-30T03:17:07;13.40;;;9.40;;
25982;SDS011;13773;48.868;10.730;2024-01-30T03:19:33;14.00;;;9.67;;
25982;SDS011;13773;48.868;10.730;2024-01-30T03:21:58;13.07;;;10.27;;
25982;SDS011;13773;48.868;10.730;2024-01-30T03:24:24;13.67;;;10.37;;
25982;SDS011;13773;48.868;10.730;2024-01-30T03:26:50;15.60;;;10.33;;
25982;SDS011;13773;48.868;10.730;2024-01-30T03:29:16;16.90;;;10.43;;
25982;SDS011;13773;48.868;10.730;2024-01-30T03:31:41;15.53;;;9.80;;
25982;SDS011;13773;48.868;10.730;2024-01-30T03:34:07;16.23;;;10.27;;
25982;SDS011;13773;48.868;10.730;2024-01-30T03:36:33;17.70;;;10.33;;
25982;SDS011;13773;48.868;10.730;2024-01-30T03:38:59;14.83;;;9.90;;
25982;SDS011;13773;48.868;10.730;2024-01-30T03:41:26;16.90;;;9.73;;
25982;SDS011;13773;48.868;10.730;2024-01-30T03:43:52;17.10;;;10.60;;
25982;SDS011;13773;48.868;10.730;2024-01-30T03:46:17;14.93;;;9.80;;
25982;SDS011;13773;48.868;10.730;2024-01-30T03:48:44;16.47;;;10.90;;
25982;SDS011;13773;48.868;10.730;2024-01-30T03:51:11;15.70;;;11.00;;
25982;SDS011;13773;48.868;10.730;2024-01-30T03:53:41;15.30;;;10.57;;
25982;SDS011;13773;48.868;10.730;2024-01-30T03:56:07;14.77;;;10.37;;
25982;SDS011;13773;48.868;10.730;2024-01-30T03:58:34;13.90;;;10.23;;
25982;SDS011;13773;48.868;10.730;2024-01-30T04:00:59;16.70;;;10.50;;
25982;SDS011;13773;48.868;10.730;2024-01-30T04:03:25;18.23;;;9.90;;
25982;SDS011;13773;48.868;10.730;2024-01-30T04:05:51;17.57;;;10.83;;
25982;SDS011;13773;48.868;10.730;2024-01-30T04:08:17;14.97;;;10.43;;
25982;SDS011;13773;48.868;10.730;2024-01-30T04:10:43;13.47;;;9.73;;
25982;SDS011;13773;48.868;10.730;2024-01-30T04:13:09;15.67;;;10.97;;
25982;SDS011;13773;48.868;10.730;2024-01-30T04:15:35;20.17;;;10.67;;
25982;SDS011;13773;48.868;10.730;2024-01-30T04:18:01;14.37;;;10.07;;
25982;SDS011;13773;48.868;10.730;2024-01-30T04:20:27;14.27;;;10.03;;
25982;SDS011;13773;48.868;10.730;2024-01-30T04:22:52;16.27;;;11.23;;
25982;SDS011;13773;48.868;10.730;2024-01-30T04:25:18;18.43;;;11.03;;
25982;SDS011;13773;48.868;10.730;2024-01-30T04:27:44;16.07;;;11.60;;
25982;SDS011;13773;48.868;10.730;2024-01-30T04:30:10;16.13;;;11.33;;
25982;SDS011;13773;48.868;10.730;2024-01-30T04:32:36;20.23;;;11.47;;
25982;SDS011;13773;48.868;10.730;2024-01-30T04:35:02;18.10;;;11.53;;
25982;SDS011;13773;48.868;10.730;2024-01-30T04:37:27;15.93;;;11.47;;
25982;SDS011;13773;48.868;10.730;2024-01-30T04:39:53;18.23;;;11.13;;
25982;SDS011;13773;48.868;10.730;2024-01-30T04:42:19;16.53;;;11.63;;
25982;SDS011;13773;48.868;10.730;2024-01-30T04:44:45;16.50;;;11.23;;
25982;SDS011;13773;48.868;10.730;2024-01-30T04:47:10;15.57;;;10.80;;
25982;SDS011;13773;48.868;10.730;2024-01-30T04:49:38;19.47;;;11.27;;
25982;SDS011;13773;48.868;10.730;2024-01-30T04:52:05;16.83;;;11.77;;
25982;SDS011;13773;48.868;10.730;2024-01-30T04:54:31;14.33;;;11.00;;
25982;SDS011;13773;48.868;10.730;2024-01-30T04:56:57;16.00;;;11.27;;
25982;SDS011;13773;48.868;10.730;2024-01-30T04:59:23;16.83;;;11.90;;
25982;SDS011;13773;48.868;10.730;2024-01-30T05:01:49;15.60;;;11.03;;
25982;SDS011;13773;48.868;10.730;2024-01-30T05:04:15;16.93;;;11.60;;
25982;SDS011;13773;48.868;10.730;2024-01-30T05:06:40;14.37;;;11.20;;
25982;SDS011;13773;48.868;10.730;2024-01-30T05:09:06;16.70;;;11.03;;
25982;SDS011;13773;48.868;10.730;2024-01-30T05:11:36;16.93;;;11.57;;
25982;SDS011;13773;48.868;10.730;2024-01-30T05:14:03;16.40;;;11.63;;
25982;SDS011;13773;48.868;10.730;2024-01-30T05:16:29;14.93;;;11.33;;
25982;SDS011;13773;48.868;10.730;2024-01-30T05:18:55;17.60;;;11.30;;
25982;SDS011;13773;48.868;10.730;2024-01-30T05:21:20;19.30;;;11.43;;
25982;SDS011;13773;48.868;10.730;2024-01-30T05:23:46;17.57;;;11.43;;
25982;SDS011;13773;48.868;10.730;2024-01-30T05:26:12;17.80;;;11.97;;
25982;SDS011;13773;48.868;10.730;2024-01-30T05:28:37;18.00;;;11.03;;
25982;SDS011;13773;48.868;10.730;2024-01-30T05:31:03;16.73;;;11.93;;
25982;SDS011;13773;48.868;10.730;2024-01-30T05:33:29;18.57;;;11.97;;
25982;SDS011;13773;48.868;10.730;2024-01-30T05:35:54;18.70;;;11.80;;
25982;SDS011;13773;48.868;10.730;2024-01-30T05:38:20;19.03;;;11.60;;
25982;SDS011;13773;48.868;10.730;2024-01-30T05:40:46;15.47;;;11.03;;
25982;SDS011;13773;48.868;10.730;2024-01-30T05:43:12;15.47;;;10.93;;
25982;SDS011;13773;48.868;10.730;2024-01-30T05:45:37;15.97;;;10.80;;
25982;SDS011;13773;48.868;10.730;2024-01-30T05:48:03;17.77;;;11.83;;
25982;SDS011;13773;48.868;10.730;2024-01-30T05:50:30;18.07;;;12.07;;
25982;SDS011;13773;48.868;10.730;2024-01-30T05:52:56;19.87;;;11.20;;
25982;SDS011;13773;48.868;10.730;2024-01-30T05:55:21;17.53;;;11.30;;
25982;SDS011;13773;48.868;10.730;2024-01-30T05:57:47;15.57;;;11.60;;
25982;SDS011;13773;48.868;10.730;2024-01-30T06:00:13;17.30;;;11.53;;
25982;SDS011;13773;48.868;10.730;2024-01-30T06:02:39;16.43;;;11.47;;
25982;SDS011;13773;48.868;10.730;2024-01-30T06:05:05;19.27;;;12.57;;
25982;SDS011;13773;48.868;10.730;2024-01-30T06:07:31;17.53;;;12.10;;
25982;SDS011;13773;48.868;10.730;2024-01-30T06:09:56;21.30;;;13.33;;
25982;SDS011;13773;48.868;10.730;2024-01-30T06:12:22;19.87;;;13.00;;
25982;SDS011;13773;48.868;10.730;2024-01-30T06:14:48;21.23;;;13.47;;
25982;SDS011;13773;48.868;10.730;2024-01-30T06:17:14;20.23;;;13.23;;
25982;SDS011;13773;48.868;10.730;2024-01-30T06:19:39;18.10;;;13.00;;
25982;SDS011;13773;48.868;10.730;2024-01-30T06:22:05;21.07;;;13.00;;
25982;SDS011;13773;48.868;10.730;2024-01-30T06:24:31;17.10;;;12.60;;
25982;SDS011;13773;48.868;10.730;2024-01-30T06:26:56;19.10;;;12.33;;
25982;SDS011;13773;48.868;10.730;2024-01-30T06:29:22;20.23;;;12.67;;
25982;SDS011;13773;48.868;10.730;2024-01-30T06:31:50;21.30;;;12.17;;
25982;SDS011;13773;48.868;10.730;2024-01-30T06:34:15;20.33;;;13.03;;
25982;SDS011;13773;48.868;10.730;2024-01-30T06:36:41;18.90;;;12.67;;
25982;SDS011;13773;48.868;10.730;2024-01-30T06:39:07;18.13;;;12.50;;
25982;SDS011;13773;48.868;10.730;2024-01-30T06:41:33;18.03;;;12.93;;
25982;SDS011;13773;48.868;10.730;2024-01-30T06:43:59;17.37;;;12.50;;
25982;SDS011;13773;48.868;10.730;2024-01-30T06:46:24;19.77;;;12.30;;
25982;SDS011;13773;48.868;10.730;2024-01-30T06:48:50;18.20;;;13.10;;
25982;SDS011;13773;48.868;10.730;2024-01-30T06:51:16;18.60;;;12.43;;
25982;SDS011;13773;48.868;10.730;2024-01-30T06:53:42;19.07;;;14.00;;
25982;SDS011;13773;48.868;10.730;2024-01-30T06:56:07;20.57;;;13.47;;
25982;SDS011;13773;48.868;10.730;2024-01-30T06:58:33;20.23;;;13.20;;
25982;SDS011;13773;48.868;10.730;2024-01-30T07:00:59;19.23;;;13.87;;
25982;SDS011;13773;48.868;10.730;2024-01-30T07:03:25;21.00;;;12.93;;
25982;SDS011;13773;48.868;10.730;2024-01-30T07:05:50;21.47;;;13.83;;
25982;SDS011;13773;48.868;10.730;2024-01-30T07:08:16;19.17;;;12.73;;
25982;SDS011;13773;48.868;10.730;2024-01-30T07:10:43;22.40;;;14.60;;
25982;SDS011;13773;48.868;10.730;2024-01-30T07:13:10;19.97;;;13.37;;
25982;SDS011;13773;48.868;10.730;2024-01-30T07:15:36;18.47;;;13.23;;
25982;SDS011;13773;48.868;10.730;2024-01-30T07:18:02;20.37;;;14.43;;
25982;SDS011;13773;48.868;10.730;2024-01-30T07:20:29;20.90;;;14.17;;
25982;SDS011;13773;48.868;10.730;2024-01-30T07:22:57;20.33;;;14.30;;
25982;SDS011;13773;48.868;10.730;2024-01-30T07:25:23;20.43;;;13.57;;
25982;SDS011;13773;48.868;10.730;2024-01-30T07:27:52;23.37;;;14.83;;
25982;SDS011;13773;48.868;10.730;2024-01-30T07:30:18;21.50;;;14.87;;
25982;SDS011;13773;48.868;10.730;2024-01-30T07:32:45;21.47;;;14.73;;
25982;SDS011;13773;48.868;10.730;2024-01-30T07:35:11;19.97;;;14.57;;
25982;SDS011;13773;48.868;10.730;2024-01-30T07:37:37;23.50;;;15.17;;
25982;SDS011;13773;48.868;10.730;2024-01-30T07:40:03;21.13;;;14.30;;
25982;SDS011;13773;48.868;10.730;2024-01-30T07:42:29;20.77;;;14.57;;
25982;SDS011;13773;48.868;10.730;2024-01-30T07:44:55;23.77;;;15.97;;
25982;SDS011;13773;48.868;10.730;2024-01-30T07:47:21;22.33;;;15.27;;
25982;SDS011;13773;48.868;10.730;2024-01-30T07:49:46;23.97;;;14.03;;
25982;SDS011;13773;48.868;10.730;2024-01-30T07:52:12;22.40;;;15.07;;
25982;SDS011;13773;48.868;10.730;2024-01-30T07:54:38;20.43;;;15.20;;
25982;SDS011;13773;48.868;10.730;2024-01-30T07:57:04;24.97;;;16.57;;
25982;SDS011;13773;48.868;10.730;2024-01-30T07:59:29;24.70;;;16.37;;
25982;SDS011;13773;48.868;10.730;2024-01-30T08:01:55;23.57;;;15.90;;
25982;SDS011;13773;48.868;10.730;2024-01-30T08:04:21;22.87;;;15.07;;
25982;SDS011;13773;48.868;10.730;2024-01-30T08:06:46;25.77;;;16.73;;
25982;SDS011;13773;48.868;10.730;2024-01-30T08:09:12;25.63;;;16.53;;
25982;SDS011;13773;48.868;10.730;2024-01-30T08:11:38;22.93;;;15.73;;
25982;SDS011;13773;48.868;10.730;2024-01-30T08:14:03;23.03;;;16.30;;
25982;SDS011;13773;48.868;10.730;2024-01-30T08:16:29;23.27;;;16.03;;
25982;SDS011;13773;48.868;10.730;2024-01-30T08:18:55;26.27;;;17.67;;
25982;SDS011;13773;48.868;10.730;2024-01-30T08:21:22;28.17;;;16.67;;
25982;SDS011;13773;48.868;10.730;2024-01-30T08:23:48;23.60;;;15.63;;
25982;SDS011;13773;48.868;10.730;2024-01-30T08:26:14;19.50;;;15.23;;
25982;SDS011;13773;48.868;10.730;2024-01-30T08:28:39;20.57;;;15.40;;
25982;SDS011;13773;48.868;10.730;2024-01-30T08:31:05;24.90;;;15.93;;
25982;SDS011;13773;48.868;10.730;2024-01-30T08:33:31;23.93;;;15.13;;
25982;SDS011;13773;48.868;10.730;2024-01-30T08:35:56;20.80;;;15.07;;
25982;SDS011;13773;48.868;10.730;2024-01-30T08:38:22;25.13;;;16.20;;
25982;SDS011;13773;48.868;10.730;2024-01-30T08:40:48;22.87;;;15.27;;
25982;SDS011;13773;48.868;10.730;2024-01-30T08:43:14;20.53;;;14.93;;
25982;SDS011;13773;48.868;10.730;2024-01-30T08:45:40;22.20;;;15.57;;
25982;SDS011;13773;48.868;10.730;2024-01-30T08:48:06;23.27;;;15.53;;
25982;SDS011;13773;48.868;10.730;2024-01-30T08:50:33;28.17;;;17.20;;
25982;SDS011;13773;48.868;10.730;2024-01-30T08:52:58;25.53;;;16.60;;
25982;SDS011;13773;48.868;10.730;2024-01-30T08:55:24;23.67;;;15.90;;
25982;SDS011;13773;48.868;10.730;2024-01-30T08:57:50;23.33;;;16.60;;
25982;SDS011;13773;48.868;10.730;2024-01-30T09:00:17;21.83;;;16.13;;
25982;SDS011;13773;48.868;10.730;2024-01-30T09:02:43;24.93;;;17.77;;
25982;SDS011;13773;48.868;10.730;2024-01-30T09:05:08;23.23;;;16.97;;
25982;SDS011;13773;48.868;10.730;2024-01-30T09:07:34;23.73;;;17.17;;
25982;SDS011;13773;48.868;10.730;2024-01-30T09:10:00;26.67;;;17.57;;
25982;SDS011;13773;48.868;10.730;2024-01-30T09:12:25;28.67;;;17.20;;
25982;SDS011;13773;48.868;10.730;2024-01-30T09:14:51;23.30;;;16.13;;
25982;SDS011;13773;48.868;10.730;2024-01-30T09:17:17;22.13;;;16.03;;
25982;SDS011;13773;48.868;10.730;2024-01-30T09:19:43;21.10;;;15.87;;
25982;SDS011;13773;48.868;10.730;2024-01-30T09:22:08;21.87;;;15.87;;
25982;SDS011;13773;48.868;10.730;2024-01-30T09:24:34;23.07;;;15.43;;
25982;SDS011;13773;48.868;10.730;2024-01-30T09:27:00;22.23;;;15.37;;
25982;SDS011;13773;48.868;10.730;2024-01-30T09:29:26;19.77;;;14.90;;
25982;SDS011;13773;48.868;10.730;2024-01-30T09:31:52;21.17;;;15.23;;
25982;SDS011;13773;48.868;10.730;2024-01-30T09:34:17;21.30;;;15.83;;
25982;SDS011;13773;48.868;10.730;2024-01-30T09:36:43;19.70;;;13.97;;
25982;SDS011;13773;48.868;10.730;2024-01-30T09:39:09;18.40;;;13.13;;
25982;SDS011;13773;48.868;10.730;2024-01-30T09:41:37;18.73;;;14.20;;
25982;SDS011;13773;48.868;10.730;2024-01-30T09:44:11;18.20;;;13.47;;
25982;SDS011;13773;48.868;10.730;2024-01-30T09:46:38;20.33;;;13.57;;
25982;SDS011;13773;48.868;10.730;2024-01-30T09:49:05;14.43;;;11.87;;
25982;SDS011;13773;48.868;10.730;2024-01-30T09:51:33;18.63;;;13.67;;
25982;SDS011;13773;48.868;10.730;2024-01-30T09:53:59;16.87;;;12.53;;
25982;SDS011;13773;48.868;10.730;2024-01-30T09:56:25;15.30;;;11.97;;
25982;SDS011;13773;48.868;10.730;2024-01-30T09:58:51;15.77;;;12.30;;
25982;SDS011;13773;48.868;10.730;2024-01-30T10:01:17;15.03;;;11.13;;
25982;SDS011;13773;48.868;10.730;2024-01-30T10:03:44;17.13;;;12.07;;
25982;SDS011;13773;48.868;10.730;2024-01-30T10:06:10;16.27;;;11.60;;
25982;SDS011;13773;48.868;10.730;2024-01-30T10:08:36;15.10;;;11.73;;
25982;SDS011;13773;48.868;10.730;2024-01-30T10:11:02;15.57;;;11.73;;
25982;SDS011;13773;48.868;10.730;2024-01-30T10:13:28;14.63;;;10.73;;
25982;SDS011;13773;48.868;10.730;2024-01-30T10:15:54;13.67;;;11.53;;
25982;SDS011;13773;48.868;10.730;2024-01-30T10:18:24;13.33;;;11.57;;
25982;SDS011;13773;48.868;10.730;2024-01-30T10:20:50;13.17;;;10.80;;
25982;SDS011;13773;48.868;10.730;2024-01-30T10:23:17;16.13;;;11.43;;
25982;SDS011;13773;48.868;10.730;2024-01-30T10:25:44;14.67;;;11.50;;
25982;SDS011;13773;48.868;10.730;2024-01-30T10:28:10;12.03;;;10.63;;
25982;SDS011;13773;48.868;10.730;2024-01-30T10:30:36;12.57;;;10.37;;
25982;SDS011;13773;48.868;10.730;2024-01-30T10:33:02;14.07;;;10.77;;
25982;SDS011;13773;48.868;10.730;2024-01-30T10:35:27;12.53;;;10.63;;
25982;SDS011;13773;48.868;10.730;2024-01-30T10:37:53;13.07;;;9.67;;
25982;SDS011;13773;48.868;10.730;2024-01-30T10:40:22;12.87;;;10.10;;
25982;SDS011;13773;48.868;10.730;2024-01-30T10:42:52;12.17;;;10.87;;
25982;SDS011;13773;48.868;10.730;2024-01-30T10:45:20;13.43;;;10.63;;
25982;SDS011;13773;48.868;10.730;2024-01-30T10:47:52;13.27;;;10.67;;
25982;SDS011;13773;48.868;10.730;2024-01-30T10:50:23;14.13;;;10.10;;
25982;SDS011;13773;48.868;10.730;2024-01-30T10:52:49;13.37;;;10.33;;
25982;SDS011;13773;48.868;10.730;2024-01-30T10:55:16;14.37;;;9.17;;
25982;SDS011;13773;48.868;10.730;2024-01-30T10:57:43;11.80;;;9.47;;
25982;SDS011;13773;48.868;10.730;2024-01-30T11:00:10;11.70;;;10.40;;
25982;SDS011;13773;48.868;10.730;2024-01-30T11:02:45;13.73;;;9.73;;
25982;SDS011;13773;48.868;10.730;2024-01-30T11:05:11;16.27;;;10.10;;
25982;SDS011;13773;48.868;10.730;2024-01-30T11:07:39;11.97;;;9.77;;
25982;SDS011;13773;48.868;10.730;2024-01-30T11:10:06;11.33;;;9.50;;
25982;SDS011;13773;48.868;10.730;2024-01-30T11:12:37;11.87;;;9.37;;
25982;SDS011;13773;48.868;10.730;2024-01-30T11:15:09;13.50;;;10.80;;
25982;SDS011;13773;48.868;10.730;2024-01-30T11:20:09;12.23;;;9.27;;
25982;SDS011;13773;48.868;10.730;2024-01-30T11:22:46;11.93;;;9.80;;
25982;SDS011;13773;48.868;10.730;2024-01-30T11:25:13;11.43;;;9.50;;
25982;SDS011;13773;48.868;10.730;2024-01-30T11:27:39;12.27;;;9.83;;
25982;SDS011;13773;48.868;10.730;2024-01-30T11:30:07;11.23;;;9.80;;
25982;SDS011;13773;48.868;10.730;2024-01-30T11:32:33;14.23;;;9.83;;
25982;SDS011;13773;48.868;10.730;2024-01-30T11:34:58;11.70;;;9.77;;
25982;SDS011;13773;48.868;10.730;2024-01-30T11:37:24;12.00;;;10.40;;
25982;SDS011;13773;48.868;10.730;2024-01-30T11:39:53;11.17;;;9.30;;
25982;SDS011;13773;48.868;10.730;2024-01-30T11:42:19;12.87;;;10.07;;
25982;SDS011;13773;48.868;10.730;2024-01-30T11:44:48;12.70;;;9.77;;
25982;SDS011;13773;48.868;10.730;2024-01-30T11:47:14;12.13;;;9.80;;
25982;SDS011;13773;48.868;10.730;2024-01-30T11:49:40;13.13;;;10.53;;
25982;SDS011;13773;48.868;10.730;2024-01-30T11:52:06;13.03;;;9.90;;
25982;SDS011;13773;48.868;10.730;2024-01-30T11:54:32;10.57;;;9.30;;
25982;SDS011;13773;48.868;10.730;2024-01-30T11:56:58;11.20;;;9.53;;
25982;SDS011;13773;48.868;10.730;2024-01-30T11:59:23;12.53;;;9.87;;
25982;SDS011;13773;48.868;10.730;2024-01-30T12:01:51;11.70;;;9.63;;
25982;SDS011;13773;48.868;10.730;2024-01-30T12:04:17;12.73;;;9.30;;
25982;SDS011;13773;48.868;10.730;2024-01-30T12:06:43;14.57;;;10.03;;
25982;SDS011;13773;48.868;10.730;2024-01-30T12:09:09;13.30;;;10.27;;
25982;SDS011;13773;48.868;10.730;2024-01-30T12:11:44;11.97;;;10.00;;
25982;SDS011;13773;48.868;10.730;2024-01-30T12:14:14;13.40;;;10.67;;
25982;SDS011;13773;48.868;10.730;2024-01-30T12:16:41;12.80;;;9.73;;
25982;SDS011;13773;48.868;10.730;2024-01-30T12:19:07;11.87;;;9.77;;
25982;SDS011;13773;48.868;10.730;2024-01-30T12:21:33;16.47;;;11.33;;
25982;SDS011;13773;48.868;10.730;2024-01-30T12:23:59;12.43;;;9.23;;
25982;SDS011;13773;48.868;10.730;2024-01-30T12:26:25;13.03;;;10.33;;
25982;SDS011;13773;48.868;10.730;2024-01-30T12:28:54;12.07;;;10.50;;
25982;SDS011;13773;48.868;10.730;2024-01-30T12:31:31;12.37;;;9.80;;
25982;SDS011;13773;48.868;10.730;2024-01-30T12:33:59;12.87;;;9.93;;
25982;SDS011;13773;48.868;10.730;2024-01-30T12:36:25;16.13;;;10.60;;
25982;SDS011;13773;48.868;10.730;2024-01-30T12:38:51;12.47;;;10.03;;
25982;SDS011;13773;48.868;10.730;2024-01-30T12:41:17;13.20;;;10.60;;
25982;SDS011;13773;48.868;10.730;2024-01-30T12:43:43;16.83;;;11.90;;
25982;SDS011;13773;48.868;10.730;2024-01-30T12:46:09;12.30;;;10.53;;
25982;SDS011;13773;48.868;10.730;2024-01-30T12:48:35;11.63;;;10.00;;
25982;SDS011;13773;48.868;10.730;2024-01-30T12:51:01;13.17;;;11.17;;
25982;SDS011;13773;48.868;10.730;2024-01-30T12:53:26;14.23;;;10.43;;
25982;SDS011;13773;48.868;10.730;2024-01-30T12:55:53;13.73;;;10.57;;
25982;SDS011;13773;48.868;10.730;2024-01-30T12:58:19;13.03;;;10.77;;
25982;SDS011;13773;48.868;10.730;2024-01-30T13:00:45;13.30;;;11.17;;
25982;SDS011;13773;48.868;10.730;2024-01-30T13:03:12;14.93;;;10.30;;
25982;SDS011;13773;48.868;10.730;2024-01-30T13:05:37;15.07;;;11.20;;
25982;SDS011;13773;48.868;10.730;2024-01-30T13:08:03;12.83;;;10.60;;
25982;SDS011;13773;48.868;10.730;2024-01-30T13:10:30;12.90;;;10.43;;
25982;SDS011;13773;48.868;10.730;2024-01-30T13:12:55;11.33;;;9.97;;
25982;SDS011;13773;48.868;10.730;2024-01-30T13:15:21;14.17;;;10.90;;
25982;SDS011;13773;48.868;10.730;2024-01-30T13:17:48;13.73;;;10.23;;
25982;SDS011;13773;48.868;10.730;2024-01-30T13:20:14;13.93;;;10.50;;
25982;SDS011;13773;48.868;10.730;2024-01-30T13:22:44;12.97;;;10.30;;
25982;SDS011;13773;48.868;10.730;2024-01-30T13:25:10;12.80;;;10.37;;
25982;SDS011;13773;48.868;10.730;2024-01-30T13:27:36;13.67;;;11.10;;
25982;SDS011;13773;48.868;10.730;2024-01-30T13:30:02;17.30;;;12.23;;
25982;SDS011;13773;48.868;10.730;2024-01-30T13:32:29;13.87;;;11.20;;
25982;SDS011;13773;48.868;10.730;2024-01-30T13:34:54;12.80;;;10.27;;
25982;SDS011;13773;48.868;10.730;2024-01-30T13:37:20;12.70;;;10.43;;
25982;SDS011;13773;48.868;10.730;2024-01-30T13:39:47;12.33;;;9.53;;
25982;SDS011;13773;48.868;10.730;2024-01-30T13:42:12;13.23;;;10.83;;
25982;SDS011;13773;48.868;10.730;2024-01-30T13:44:38;15.07;;;10.43;;
25982;SDS011;13773;48.868;10.730;2024-01-30T13:47:04;12.10;;;10.13;;
25982;SDS011;13773;48.868;10.730;2024-01-30T13:49:30;14.23;;;10.13;;
25982;SDS011;13773;48.868;10.730;2024-01-30T13:51:55;11.13;;;9.90;;
25982;SDS011;13773;48.868;10.730;2024-01-30T13:54:21;12.07;;;10.30;;
25982;SDS011;13773;48.868;10.730;2024-01-30T13:56:47;13.00;;;10.23;;
25982;SDS011;13773;48.868;10.730;2024-01-30T13:59:12;12.93;;;10.50;;
25982;SDS011;13773;48.868;10.730;2024-01-30T14:01:38;13.50;;;10.70;;
25982;SDS011;13773;48.868;10.730;2024-01-30T14:04:04;12.03;;;10.07;;
25982;SDS011;13773;48.868;10.730;2024-01-30T14:06:29;13.57;;;10.60;;
25982;SDS011;13773;48.868;10.730;2024-01-30T14:08:55;12.03;;;10.10;;
25982;SDS011;13773;48.868;10.730;2024-01-30T14:11:21;11.57;;;9.53;;